Airfield :







YOU CAN JOIN US ON...

 
LOGIN :

Register | Disclaimer

   EN    FR    IT 

 









Legend :    VFR   Marginal VFR   IFR   Intensive IFR   Very Intensive IFR
Visi :
Ceiling :
>= 8 km
>= 3000ft
5 to 8 km
1000 to 3000 ft
1500m to 5 km
500 to 1000 ft
800 to 1500m
200 to 500 ft
< 800m
< 200 ft
Symbols :   Thunderstorms  Fog  Heavy snow  Heavy precipitations  Wind > 20 kt







- Airport Elevation : 357 ft
- IATA code : YSJ


CYSJ - Saint John

CURRENT METAR :
  • 181200Z 02004KT 15SM SCT007 BKN230 07/06 A3029 RMK SF4CI1 SLP263

EXPIRED METARs :
  • 181100Z 04004KT 6SM BR FEW001 FEW028 SCT230 01/01 A3027 RMK SF1SC1CI1 SLP257
  • 181000Z 01005KT 4SM BR FEW001 FEW028 FEW250 02/02 A3025 RMK SF1SC1CI1 SC TR CI TR VIS W-NW 3/4 SLP249
  • 180935Z 02004KT 3SM BR FEW001 FEW028 FEW250 M00/M00 A3024 RMK SF1SC1CI1 SF TR SC TR CI TR VIS N 2 SLP247

TAF AMD TAF CYSJ
Valid from the 18 at 12:00 until the 19 at 00:00 UTC


181141Z 1812/1824 04005KT P6SM SKC
TEMPO 1812/1813 5SM BR
BECMG 1813/1815 01012KT
FM182300 05005KT P6SM SKC RMK NXT FCST BY 181800Z
No reported NOTAMs for that airfield.



MET'MAP, your aeronautical weather chart ! - Copyright ORBIFLY December 2007 - Disclaimer

ORBIFLY MET'MAP TEAM :

Programming & Development : Alexandra Zaïnal
Concept & Development : Baudouin d'Aumeries
Co-Development & Prog : Marc-Olivier Méhu
Technical & hardware support : Manuel Goepfert

Contact : metmap@orbifly.com




SOURCES & CREDITS :

   NOAA